createdAt,value
2018-08-06T00:01:04.737Z,19.54
2018-08-06T00:03:33.820Z,19.55
2018-08-06T00:06:02.888Z,19.56
2018-08-06T00:08:31.976Z,19.62
2018-08-06T00:11:01.043Z,19.68
2018-08-06T00:13:30.153Z,19.62
2018-08-06T00:15:59.217Z,19.60
2018-08-06T00:18:28.299Z,19.54
2018-08-06T00:20:57.367Z,19.49
2018-08-06T00:23:26.456Z,19.47
2018-08-06T00:25:55.520Z,19.44
2018-08-06T00:28:24.613Z,19.32
2018-08-06T00:30:53.683Z,19.28
2018-08-06T00:33:22.764Z,19.26
2018-08-06T00:35:51.834Z,19.20
2018-08-06T00:38:20.924Z,19.20
2018-08-06T00:40:49.988Z,19.26
2018-08-06T00:43:19.108Z,19.27
2018-08-06T00:45:48.176Z,19.29
2018-08-06T00:48:17.284Z,19.26
2018-08-06T00:50:46.351Z,19.22
2018-08-06T00:53:15.452Z,19.18
2018-08-06T00:55:44.517Z,19.01
2018-08-06T00:58:13.604Z,18.83
2018-08-06T01:00:42.687Z,18.76
2018-08-06T01:03:11.783Z,18.68
2018-08-06T01:05:40.844Z,18.55
2018-08-06T01:08:09.941Z,18.56
2018-08-06T01:10:39.075Z,18.63
2018-08-06T01:13:08.205Z,18.73
2018-08-06T01:15:37.268Z,18.76
2018-08-06T01:18:06.379Z,18.75
2018-08-06T01:20:35.475Z,18.69
2018-08-06T01:23:04.572Z,18.66
2018-08-06T01:25:33.651Z,18.58
2018-08-06T01:28:02.772Z,18.50
2018-08-06T01:30:31.854Z,18.47
2018-08-06T01:33:00.923Z,18.40
2018-08-06T01:35:30.023Z,18.26
2018-08-06T01:37:59.092Z,18.20
2018-08-06T01:40:28.188Z,18.20
2018-08-06T01:42:57.264Z,18.13
2018-08-06T01:45:26.372Z,18.10
2018-08-06T01:47:55.440Z,18.02
2018-08-06T01:50:24.528Z,18.05
2018-08-06T01:52:53.596Z,18.04
2018-08-06T01:55:22.688Z,18.03
2018-08-06T01:57:51.752Z,18.01
2018-08-06T02:00:20.840Z,17.93
2018-08-06T02:02:49.904Z,17.97
2018-08-06T02:05:19.004Z,17.96
2018-08-06T02:07:48.072Z,17.99
2018-08-06T02:10:17.161Z,18.02
2018-08-06T02:12:46.244Z,18.04
2018-08-06T02:15:15.348Z,18.12
2018-08-06T02:17:44.415Z,18.15
2018-08-06T02:20:15.049Z,18.14
2018-08-06T02:22:44.743Z,18.10
2018-08-06T02:25:13.849Z,18.02
2018-08-06T02:27:43.442Z,17.92
2018-08-06T02:30:14.092Z,17.87
2018-08-06T02:32:43.160Z,17.80
2018-08-06T02:35:13.921Z,17.67
2018-08-06T02:37:43.401Z,17.49
2018-08-06T02:40:14.409Z,17.44
2018-08-06T02:42:43.561Z,17.46
2018-08-06T02:45:12.669Z,17.54
2018-08-06T02:47:41.723Z,17.50
2018-08-06T02:50:11.656Z,17.41
2018-08-06T02:52:41.747Z,17.30
2018-08-06T02:55:13.164Z,17.24
2018-08-06T02:57:42.223Z,17.28
2018-08-06T03:00:13.592Z,17.29
2018-08-06T03:02:43.959Z,17.28
2018-08-06T03:05:14.392Z,17.29
2018-08-06T03:07:44.509Z,17.38
2018-08-06T03:10:13.716Z,17.40
2018-08-06T03:12:43.828Z,17.40
2018-08-06T03:15:13.248Z,17.45
2018-08-06T03:17:42.528Z,17.42
2018-08-06T03:20:12.586Z,17.38
2018-08-06T03:22:41.736Z,17.37
2018-08-06T03:25:13.003Z,17.35
2018-08-06T03:27:42.792Z,17.40
2018-08-06T03:30:13.856Z,17.43
2018-08-06T03:32:43.648Z,17.42
2018-08-06T03:35:12.843Z,17.29
2018-08-06T03:37:41.961Z,17.17
2018-08-06T03:40:11.367Z,17.07
2018-08-06T03:42:40.511Z,16.96
2018-08-06T03:45:11.387Z,16.85
2018-08-06T03:47:41.484Z,16.76
2018-08-06T03:50:11.932Z,16.83
2018-08-06T03:52:41.024Z,16.77
2018-08-06T03:55:11.147Z,16.72
2018-08-06T03:57:40.714Z,16.79
2018-08-06T04:00:12.484Z,16.88
2018-08-06T04:02:42.912Z,16.88
2018-08-06T04:05:13.047Z,16.94
2018-08-06T04:07:42.112Z,16.95
2018-08-06T04:10:13.088Z,17.07
2018-08-06T04:12:42.255Z,17.14
2018-08-06T04:15:11.879Z,17.10
2018-08-06T04:17:41.776Z,17.15
2018-08-06T04:20:11.821Z,17.12
2018-08-06T04:22:41.509Z,17.10
2018-08-06T04:25:10.612Z,17.00
2018-08-06T04:27:39.684Z,16.91
2018-08-06T04:30:11.164Z,16.87
2018-08-06T04:32:40.238Z,16.94
2018-08-06T04:35:09.312Z,16.98
2018-08-06T04:37:38.372Z,16.96
2018-08-06T04:40:08.883Z,17.04
2018-08-06T04:42:37.953Z,16.99
2018-08-06T04:45:07.581Z,17.16
2018-08-06T04:47:36.756Z,17.28
2018-08-06T04:50:06.095Z,17.35
2018-08-06T04:52:35.188Z,17.42
2018-08-06T04:55:04.701Z,17.53
2018-08-06T04:57:33.799Z,17.57
2018-08-06T05:00:03.183Z,17.55
2018-08-06T05:02:32.277Z,17.42
2018-08-06T05:05:01.343Z,17.46
2018-08-06T05:07:30.444Z,17.40
2018-08-06T05:09:59.511Z,17.50
2018-08-06T05:12:28.587Z,17.49
2018-08-06T05:14:57.664Z,17.37
2018-08-06T05:17:26.776Z,17.58
2018-08-06T05:19:55.848Z,17.73
2018-08-06T05:22:24.944Z,17.84
2018-08-06T05:24:54.035Z,17.79
2018-08-06T05:27:23.116Z,17.57
2018-08-06T05:29:52.374Z,17.41
2018-08-06T05:32:21.479Z,17.44
2018-08-06T05:34:50.531Z,17.45
2018-08-06T05:37:19.771Z,17.63
2018-08-06T05:39:49.148Z,17.69
2018-08-06T05:42:18.251Z,17.68
2018-08-06T05:44:47.356Z,17.78
2018-08-06T05:47:16.493Z,17.84
2018-08-06T05:49:45.882Z,17.83
2018-08-06T05:52:14.996Z,18.03
2018-08-06T05:54:44.072Z,18.13
2018-08-06T05:57:13.164Z,18.42
2018-08-06T05:59:42.249Z,18.79
2018-08-06T06:02:11.348Z,19.02
2018-08-06T06:04:40.419Z,19.31
2018-08-06T06:07:09.604Z,19.65
2018-08-06T06:09:38.714Z,19.92
2018-08-06T06:12:07.840Z,20.14
2018-08-06T06:14:37.951Z,20.35
2018-08-06T06:17:07.056Z,20.61
2018-08-06T06:19:36.215Z,20.93
2018-08-06T06:22:05.312Z,21.15
2018-08-06T06:24:34.385Z,21.17
2018-08-06T06:27:03.472Z,21.45
2018-08-06T06:29:32.591Z,21.75
2018-08-06T06:32:01.685Z,21.90
2018-08-06T06:34:30.869Z,21.88
2018-08-06T06:36:59.944Z,21.98
2018-08-06T06:39:29.020Z,22.26
2018-08-06T06:41:58.136Z,22.31
2018-08-06T06:44:27.219Z,22.26
2018-08-06T06:46:56.316Z,22.56
2018-08-06T06:49:25.400Z,22.65
2018-08-06T06:51:54.511Z,22.84
2018-08-06T06:54:23.597Z,22.78
2018-08-06T06:56:52.668Z,22.89
2018-08-06T06:59:21.742Z,23.02
2018-08-06T07:01:50.837Z,23.20
2018-08-06T07:04:19.912Z,23.07
2018-08-06T07:06:49.008Z,23.32
2018-08-06T07:09:18.072Z,23.30
2018-08-06T07:11:47.172Z,23.28
2018-08-06T07:14:16.244Z,23.44
2018-08-06T07:16:45.311Z,23.52
2018-08-06T07:19:14.399Z,23.65
2018-08-06T07:21:43.478Z,23.68
2018-08-06T07:24:12.652Z,23.69
2018-08-06T07:26:41.715Z,23.86
2018-08-06T07:29:10.816Z,23.84
2018-08-06T07:31:39.916Z,23.78
2018-08-06T07:34:09.009Z,23.88
2018-08-06T07:36:38.073Z,23.78
2018-08-06T07:39:09.577Z,23.91
2018-08-06T07:41:38.679Z,24.09
2018-08-06T07:44:08.168Z,24.31
2018-08-06T07:46:37.760Z,24.48
2018-08-06T07:49:07.036Z,24.52
2018-08-06T07:51:36.128Z,24.61
2018-08-06T07:54:05.244Z,24.79
2018-08-06T07:56:34.312Z,24.89
2018-08-06T07:59:03.440Z,24.89
2018-08-06T08:01:32.548Z,24.93
2018-08-06T08:04:01.647Z,24.95
2018-08-06T08:06:31.070Z,25.04
2018-08-06T08:09:00.035Z,25.17
2018-08-06T08:11:29.188Z,25.34
2018-08-06T08:13:58.285Z,25.36
2018-08-06T08:16:27.800Z,25.40
2018-08-06T08:18:57.512Z,25.56
2018-08-06T08:21:26.580Z,25.70
2018-08-06T08:23:55.704Z,25.92
2018-08-06T08:26:24.789Z,26.04
2018-08-06T08:28:53.879Z,25.98
2018-08-06T08:31:23.084Z,25.95
2018-08-06T08:33:52.203Z,26.06
2018-08-06T08:36:21.284Z,26.27
2018-08-06T08:38:50.376Z,26.45
2018-08-06T08:41:19.467Z,26.52
2018-08-06T08:43:48.660Z,26.61
2018-08-06T08:46:17.727Z,26.60
2018-08-06T08:48:46.883Z,26.41
2018-08-06T08:51:15.975Z,26.59
2018-08-06T08:53:45.096Z,26.61
2018-08-06T08:56:14.163Z,26.76
2018-08-06T08:58:43.294Z,26.78
2018-08-06T09:01:12.375Z,26.77
2018-08-06T09:03:41.468Z,27.07
2018-08-06T09:06:10.555Z,27.16
2018-08-06T09:08:39.683Z,27.26
2018-08-06T09:11:08.748Z,27.42
2018-08-06T09:13:37.844Z,27.37
2018-08-06T09:16:06.920Z,27.27
2018-08-06T09:18:36.112Z,27.28
2018-08-06T09:21:05.210Z,27.25
2018-08-06T09:23:34.304Z,27.23
2018-08-06T09:26:03.376Z,27.34
2018-08-06T09:28:32.471Z,27.37
2018-08-06T09:31:02.048Z,27.54
2018-08-06T09:33:31.148Z,27.73
2018-08-06T09:36:00.241Z,27.80
2018-08-06T09:38:29.347Z,27.88
2018-08-06T09:40:58.435Z,28.00
2018-08-06T09:43:27.702Z,28.15
2018-08-06T09:45:56.825Z,28.07
2018-08-06T09:48:25.895Z,27.95
2018-08-06T09:50:54.991Z,27.96
2018-08-06T09:53:24.079Z,28.10
2018-08-06T09:55:53.176Z,28.16
2018-08-06T09:58:22.243Z,28.28
2018-08-06T10:00:56.543Z,28.39
2018-08-06T10:03:25.623Z,28.45
2018-08-06T10:05:54.966Z,28.38
2018-08-06T10:08:23.792Z,28.48
2018-08-06T10:10:52.875Z,28.51
2018-08-06T10:13:21.943Z,28.68
2018-08-06T10:15:51.043Z,28.87
2018-08-06T10:18:20.108Z,28.89
2018-08-06T10:20:49.205Z,28.83
2018-08-06T10:23:18.268Z,28.94
2018-08-06T10:25:47.372Z,28.99
2018-08-06T10:28:16.443Z,29.18
2018-08-06T10:30:45.527Z,29.37
2018-08-06T10:33:14.600Z,29.45
2018-08-06T10:35:43.689Z,29.55
2018-08-06T10:38:12.765Z,29.69
2018-08-06T10:40:41.860Z,29.75
2018-08-06T10:43:10.932Z,29.60
2018-08-06T10:45:40.132Z,29.73
2018-08-06T10:48:09.877Z,29.88
2018-08-06T10:50:38.940Z,29.89
2018-08-06T10:53:08.024Z,29.81
2018-08-06T10:55:37.116Z,30.00
2018-08-06T10:58:06.176Z,30.19
2018-08-06T11:00:35.304Z,30.12
2018-08-06T11:03:04.419Z,29.94
2018-08-06T11:05:33.508Z,29.95
2018-08-06T11:08:02.587Z,30.13
2018-08-06T11:10:31.675Z,30.11
2018-08-06T11:13:01.014Z,30.14
2018-08-06T11:15:30.100Z,30.36
2018-08-06T11:17:59.183Z,30.47
2018-08-06T11:20:28.346Z,30.31
2018-08-06T11:22:57.412Z,30.33
2018-08-06T11:25:27.467Z,30.30
2018-08-06T11:27:56.574Z,30.37
2018-08-06T11:30:25.747Z,30.47
2018-08-06T11:32:55.140Z,30.46
2018-08-06T11:35:24.224Z,30.69
2018-08-06T11:37:53.304Z,30.68
2018-08-06T11:40:22.399Z,30.63
2018-08-06T11:42:51.482Z,30.60
2018-08-06T11:45:21.760Z,30.67
2018-08-06T11:47:50.860Z,30.65
2018-08-06T11:50:19.952Z,30.58
2018-08-06T11:52:49.020Z,30.70
2018-08-06T11:55:18.108Z,30.67
2018-08-06T11:57:47.176Z,30.59
2018-08-06T12:00:20.622Z,30.67
2018-08-06T12:02:49.704Z,30.63
2018-08-06T12:05:18.800Z,30.77
2018-08-06T12:07:47.863Z,30.79
2018-08-06T12:10:18.235Z,30.68
2018-08-06T12:12:48.165Z,30.92
2018-08-06T12:15:17.431Z,30.98
2018-08-06T12:17:46.461Z,31.08
2018-08-06T12:20:17.607Z,31.20
2018-08-06T12:22:47.905Z,31.39
2018-08-06T12:25:17.600Z,31.49
2018-08-06T12:27:47.336Z,31.50
2018-08-06T12:30:18.466Z,31.58
2018-08-06T12:32:48.241Z,31.54
2018-08-06T12:35:17.767Z,31.62
2018-08-06T12:37:48.263Z,31.75
2018-08-06T12:40:18.515Z,31.93
2018-08-06T12:42:47.619Z,31.90
2018-08-06T12:45:17.294Z,31.93
2018-08-06T12:47:46.819Z,31.88
2018-08-06T12:50:16.719Z,31.91
2018-08-06T12:52:46.031Z,31.99
2018-08-06T12:55:16.436Z,31.96
2018-08-06T12:57:45.967Z,31.94
2018-08-06T13:00:21.476Z,32.01
2018-08-06T13:02:51.219Z,32.03
2018-08-06T13:05:20.896Z,32.16
2018-08-06T13:07:49.987Z,32.20
2018-08-06T13:10:19.057Z,32.09
2018-08-06T13:12:48.671Z,31.95
2018-08-06T13:15:18.096Z,31.95
2018-08-06T13:17:47.220Z,32.07
2018-08-06T13:20:16.288Z,31.96
2018-08-06T13:22:45.379Z,32.21
2018-08-06T13:25:14.452Z,32.17
2018-08-06T13:27:43.543Z,32.22
2018-08-06T13:30:14.507Z,32.06
2018-08-06T13:32:44.233Z,31.96
2018-08-06T13:35:14.537Z,32.06
2018-08-06T13:37:43.628Z,32.02
2018-08-06T13:40:13.485Z,32.17
2018-08-06T13:42:42.583Z,32.19
2018-08-06T13:45:13.431Z,32.31
2018-08-06T13:47:42.672Z,32.32
2018-08-06T13:50:12.247Z,32.43
2018-08-06T13:52:42.405Z,32.56
2018-08-06T13:55:13.139Z,32.69
2018-08-06T13:57:42.551Z,32.55
2018-08-06T14:00:14.963Z,32.60
2018-08-06T14:02:44.220Z,32.40
2018-08-06T14:05:14.660Z,32.18
2018-08-06T14:07:44.876Z,32.13
2018-08-06T14:10:14.250Z,32.17
2018-08-06T14:12:43.335Z,32.27
2018-08-06T14:15:12.836Z,32.54
2018-08-06T14:17:42.576Z,32.65
2018-08-06T14:20:13.200Z,32.68
2018-08-06T14:22:42.327Z,32.69
2018-08-06T14:25:11.980Z,32.66
2018-08-06T14:27:41.088Z,32.83
2018-08-06T14:30:12.522Z,32.97
2018-08-06T14:32:42.051Z,32.74
2018-08-06T14:35:11.301Z,32.78
2018-08-06T14:37:40.416Z,32.84
2018-08-06T14:40:12.891Z,32.80
2018-08-06T14:42:42.012Z,32.61
2018-08-06T14:45:11.496Z,32.53
2018-08-06T14:47:40.588Z,32.48
2018-08-06T14:50:11.316Z,32.57
2018-08-06T14:52:40.483Z,32.68
2018-08-06T14:55:09.555Z,32.78
2018-08-06T14:57:39.748Z,32.81
2018-08-06T15:00:15.679Z,32.66
2018-08-06T15:02:44.884Z,32.73
2018-08-06T15:05:13.972Z,32.75
2018-08-06T15:07:43.085Z,32.93
2018-08-06T15:10:13.188Z,33.00
2018-08-06T15:12:42.276Z,32.96
2018-08-06T15:15:13.683Z,32.96
2018-08-06T15:17:43.247Z,32.83
2018-08-06T15:20:13.964Z,32.80
2018-08-06T15:22:43.108Z,32.76
2018-08-06T15:25:14.132Z,32.74
2018-08-06T15:27:43.616Z,32.85
2018-08-06T15:30:12.713Z,32.92
2018-08-06T15:32:41.812Z,32.80
2018-08-06T15:35:11.603Z,32.83
2018-08-06T15:37:41.461Z,32.66
2018-08-06T15:40:15.013Z,32.68
2018-08-06T15:42:44.125Z,32.77
2018-08-06T15:45:13.720Z,32.74
2018-08-06T15:47:43.539Z,32.55
2018-08-06T15:50:14.418Z,32.51
2018-08-06T15:52:43.528Z,32.56
2018-08-06T15:55:12.615Z,32.49
2018-08-06T15:57:41.964Z,32.48
2018-08-06T16:00:14.411Z,32.49
2018-08-06T16:02:43.850Z,32.54
2018-08-06T16:05:13.258Z,32.64
2018-08-06T16:07:42.364Z,32.63
2018-08-06T16:10:12.248Z,32.62
2018-08-06T16:12:41.733Z,32.57
2018-08-06T16:15:12.376Z,32.57
2018-08-06T16:17:42.307Z,32.56
2018-08-06T16:20:13.792Z,32.41
2018-08-06T16:22:42.912Z,32.30
2018-08-06T16:25:12.686Z,32.38
2018-08-06T16:27:41.777Z,32.71
2018-08-06T16:30:19.851Z,32.98
2018-08-06T16:32:49.325Z,32.54
2018-08-06T16:35:19.978Z,32.41
2018-08-06T16:37:49.813Z,32.25
2018-08-06T16:40:18.928Z,32.17
2018-08-06T16:42:48.817Z,32.11
2018-08-06T16:45:17.964Z,32.11
2018-08-06T16:47:47.080Z,32.02
2018-08-06T16:50:17.308Z,31.87
2018-08-06T16:52:46.579Z,31.92
2018-08-06T16:55:15.572Z,31.96
2018-08-06T16:57:44.695Z,31.94
2018-08-06T17:00:17.759Z,31.82
2018-08-06T17:02:47.183Z,31.75
2018-08-06T17:05:16.318Z,31.70
2018-08-06T17:07:46.473Z,31.64
2018-08-06T17:10:17.975Z,31.65
2018-08-06T17:12:48.475Z,31.56
2018-08-06T17:15:18.800Z,31.61
2018-08-06T17:17:48.835Z,31.49
2018-08-06T17:20:19.652Z,31.39
2018-08-06T17:22:49.744Z,31.39
2018-08-06T17:25:19.120Z,31.32
2018-08-06T17:27:48.236Z,31.30
2018-08-06T17:30:18.067Z,31.22
2018-08-06T17:32:47.343Z,31.21
2018-08-06T17:35:16.739Z,31.14
2018-08-06T17:37:45.838Z,31.10
2018-08-06T17:40:16.809Z,31.10
2018-08-06T17:42:45.966Z,31.09
2018-08-06T17:45:18.995Z,31.03
2018-08-06T17:47:49.405Z,31.04
2018-08-06T17:50:22.284Z,31.07
2018-08-06T17:52:54.986Z,31.13
2018-08-06T17:55:25.322Z,31.15
2018-08-06T17:57:55.970Z,31.18
2018-08-06T18:00:26.850Z,31.29
2018-08-06T18:02:57.680Z,31.53
2018-08-06T18:05:28.146Z,31.71
2018-08-06T18:07:59.509Z,31.78
2018-08-06T18:10:29.897Z,31.84
2018-08-06T18:13:00.386Z,31.91
2018-08-06T18:15:30.821Z,31.94
2018-08-06T18:18:02.621Z,31.88
2018-08-06T18:20:34.048Z,31.80
2018-08-06T18:23:04.495Z,31.76
2018-08-06T18:25:36.607Z,31.71
2018-08-06T18:28:07.893Z,31.68
2018-08-06T18:30:39.022Z,31.64
2018-08-06T18:33:10.526Z,31.57
2018-08-06T18:35:40.923Z,31.47
2018-08-06T18:38:11.960Z,31.37
2018-08-06T18:40:42.452Z,31.28
2018-08-06T18:43:13.784Z,31.16
2018-08-06T18:45:45.089Z,30.98
2018-08-06T18:48:16.442Z,30.76
2018-08-06T18:50:47.012Z,30.61
2018-08-06T18:53:19.863Z,30.44
2018-08-06T18:55:50.795Z,30.31
2018-08-06T18:58:21.239Z,30.18
2018-08-06T19:00:54.967Z,30.10
2018-08-06T19:03:26.060Z,29.99
2018-08-06T19:05:56.493Z,29.89
2018-08-06T19:08:27.575Z,29.84
2018-08-06T19:10:57.940Z,29.68
2018-08-06T19:13:33.247Z,29.64
2018-08-06T19:16:03.626Z,29.56
2018-08-06T19:18:38.210Z,29.47
2018-08-06T19:21:07.634Z,29.49
2018-08-06T19:23:36.695Z,29.41
2018-08-06T19:26:05.800Z,29.30
2018-08-06T19:28:34.875Z,29.17
2018-08-06T19:31:09.559Z,29.12
2018-08-06T19:33:38.624Z,29.05
2018-08-06T19:36:07.724Z,29.01
2018-08-06T19:38:36.820Z,28.91
2018-08-06T19:41:05.991Z,28.83
2018-08-06T19:43:39.035Z,28.86
2018-08-06T19:46:08.773Z,28.67
2018-08-06T19:48:38.048Z,28.47
2018-08-06T19:51:08.161Z,28.39
2018-08-06T19:53:37.232Z,28.17
2018-08-06T19:56:12.155Z,27.91
2018-08-06T19:58:41.216Z,27.75
2018-08-06T20:01:10.316Z,27.68
2018-08-06T20:03:39.391Z,27.58
2018-08-06T20:06:08.797Z,27.61
2018-08-06T20:08:37.911Z,27.64
2018-08-06T20:11:07.289Z,27.72
2018-08-06T20:13:36.360Z,27.79
2018-08-06T20:16:05.448Z,27.71
2018-08-06T20:18:34.548Z,27.66
2018-08-06T20:21:03.711Z,27.54
2018-08-06T20:23:32.800Z,27.37
2018-08-06T20:26:01.888Z,27.18
2018-08-06T20:28:30.956Z,27.00
2018-08-06T20:31:00.129Z,26.85
2018-08-06T20:33:29.227Z,26.74
2018-08-06T20:35:58.316Z,26.68
2018-08-06T20:38:27.395Z,26.67
2018-08-06T20:40:56.484Z,26.63
2018-08-06T20:43:25.595Z,26.59
2018-08-06T20:45:54.685Z,26.58
2018-08-06T20:48:23.772Z,26.59
2018-08-06T20:50:52.839Z,26.52
2018-08-06T20:53:21.922Z,26.32
2018-08-06T20:55:50.983Z,26.30
2018-08-06T20:58:20.179Z,26.26
2018-08-06T21:00:49.256Z,26.29
2018-08-06T21:03:19.351Z,26.23
2018-08-06T21:05:48.423Z,26.21
2018-08-06T21:08:17.532Z,26.06
2018-08-06T21:10:46.644Z,25.94
2018-08-06T21:13:15.724Z,26.01
2018-08-06T21:15:44.856Z,25.87
2018-08-06T21:18:13.936Z,25.83
2018-08-06T21:20:43.010Z,25.65
2018-08-06T21:23:12.130Z,25.61
2018-08-06T21:25:41.187Z,25.62
2018-08-06T21:28:10.264Z,25.46
2018-08-06T21:30:39.969Z,25.50
2018-08-06T21:33:09.084Z,25.47
2018-08-06T21:35:38.180Z,25.48
2018-08-06T21:38:07.355Z,25.41
2018-08-06T21:40:36.501Z,25.30
2018-08-06T21:43:05.577Z,25.25
2018-08-06T21:45:34.677Z,25.22
2018-08-06T21:48:03.800Z,25.19
2018-08-06T21:50:32.918Z,25.06
2018-08-06T21:53:01.946Z,25.07
2018-08-06T21:55:31.015Z,24.93
2018-08-06T21:58:00.109Z,24.85
2018-08-06T22:00:34.552Z,24.94
2018-08-06T22:03:04.910Z,24.97
2018-08-06T22:05:34.039Z,24.99
2018-08-06T22:08:03.603Z,24.87
2018-08-06T22:10:32.856Z,24.87
2018-08-06T22:13:01.957Z,24.77
2018-08-06T22:15:31.020Z,24.77
2018-08-06T22:18:00.112Z,24.71
2018-08-06T22:20:29.176Z,24.77
2018-08-06T22:22:58.303Z,24.82
2018-08-06T22:25:27.376Z,24.70
2018-08-06T22:27:56.464Z,24.57
2018-08-06T22:30:25.531Z,24.49
2018-08-06T22:32:54.625Z,24.38
2018-08-06T22:35:23.693Z,24.26
2018-08-06T22:37:52.791Z,24.13
2018-08-06T22:40:21.860Z,24.16
2018-08-06T22:42:50.948Z,24.10
2018-08-06T22:45:20.048Z,23.99
2018-08-06T22:47:49.184Z,24.04
2018-08-06T22:50:18.248Z,23.99
2018-08-06T22:52:47.331Z,23.91
2018-08-06T22:55:16.407Z,23.88
2018-08-06T22:57:45.487Z,23.88
2018-08-06T23:00:15.914Z,23.89
2018-08-06T23:02:45.444Z,23.88
2018-08-06T23:05:16.055Z,23.78
2018-08-06T23:07:45.235Z,23.66
2018-08-06T23:10:15.952Z,23.62
2018-08-06T23:12:45.076Z,23.50
2018-08-06T23:15:15.392Z,23.48
2018-08-06T23:17:44.922Z,23.40
2018-08-06T23:20:13.967Z,23.34
2018-08-06T23:22:43.063Z,23.34
2018-08-06T23:25:12.164Z,23.45
2018-08-06T23:27:41.223Z,23.38
2018-08-06T23:30:13.027Z,23.27
2018-08-06T23:32:42.408Z,23.28
2018-08-06T23:35:12.685Z,23.31
2018-08-06T23:37:42.748Z,23.31
2018-08-06T23:40:12.576Z,23.26
2018-08-06T23:42:42.168Z,23.23
2018-08-06T23:45:13.072Z,23.28
2018-08-06T23:47:42.146Z,23.27
2018-08-06T23:50:12.876Z,23.31
2018-08-06T23:52:43.864Z,23.23
2018-08-06T23:55:15.383Z,23.19
2018-08-06T23:57:44.444Z,23.20
